Sarcobatus Flat, Nevada Weather observations

Data are for observation ending at time listed.
 Day   Time    Ave.   Ave.  Ave.  Vector   Max.   Stn.    Total    Solar   Ave.  
  of    of     Air    Rel.  Wind   Wind    Wind   Baro.  Precip.   Rad.    Soil  
Year   Day     Temp.  Hum.  Speed  Dir.    Gust   Pres.                    Temp. 
2014   (PST)    F      %     mph   deg.    mph     mb.     in.     W/m2     F   
------------------------------------------------------------------------------
 294   22:00   53.8    15    5.9   346      9.7   877.7    0.00       0    999.0
 294   22:10   54.3    16    5.9   342      8.5   877.8    0.00       0    999.0
 294   22:20   52.1    17    6.5   336      8.0   877.8    0.00       0    999.0
 294   22:30   50.0    18    5.9   333      8.4   877.9    0.00       0    999.0
 294   22:40   48.7    19    4.6   336      7.2   878.0    0.00       0    999.0
 294   22:50   48.2    20    5.3   339      6.8   877.9    0.00       0    999.0
 294   23:00   48.4    20    5.0   333      7.8   877.8    0.00       0    999.0
 294   23:10   48.4    19    4.1   343      8.4   878.0    0.00       0    999.0
 294   23:20   47.7    20    4.5   345      8.5   878.1    0.00       0    999.0
 294   23:30   48.4    20    8.4   337     10.6   878.2    0.00       0    999.0
 294   23:40   51.6    17    9.2   337     11.8   878.2    0.00       0    999.0
 294   23:50   55.2    15    9.0   330     10.8   878.4    0.00       0    999.0
 295    0:00   53.9    16    9.2   333     11.4   878.4    0.00       0    999.0
 295    0:10   54.3    16    8.9   344     11.7   878.4    0.00       0    999.0
 295    0:20   53.3    16    5.0   344      7.6   878.4    0.00       0    999.0
 295    0:30   51.8    18    7.3   328      8.9   878.4    0.00       0    999.0
 295    0:40   51.9    18    7.3   333     10.4   878.3    0.00       0    999.0
 295    0:50   50.8    18    6.1   339      8.3   878.3    0.00       0    999.0
 295    1:00   51.5    18    7.1   340     11.5   878.5    0.00       0    999.0
 295    1:10   50.5    18    7.5   327     10.8   878.5    0.00       0    999.0
 295    1:20   50.7    18    8.7   336     12.1   878.5    0.00       0    999.0
 295    1:30   51.1    18    7.8   330      9.6   878.6    0.00       0    999.0
 295    1:40   49.0    20    7.4   325     11.0   878.7    0.00       0    999.0
 295    1:50   49.0    20   10.6   343     13.1   878.8    0.00       0    999.0
 295    2:00   50.0    19   10.3   341     13.4   878.8    0.00       0    999.0
 295    2:10   49.5    19    7.1   336      9.3   878.8    0.00       0    999.0
 295    2:20   49.0    19    8.3   321     10.4   878.8    0.00       0    999.0
 295    2:30   48.8    19    7.8   333      9.7   878.8    0.00       0    999.0
 295    2:40   48.0    20    8.5   331     11.0   878.9    0.00       0    999.0
 295    2:50   47.7    20    7.9   320     10.4   879.0    0.00       0    999.0
 295    3:00   48.8    19    8.2   323     10.4   879.1    0.00       0    999.0
 295    3:10   48.7    19    8.8   318     11.2   879.2    0.00       0    999.0
 295    3:20   47.7    20    9.6   317     11.7   879.3    0.00       0    999.0
 295    3:30   46.8    20    9.4   321     11.2   879.4    0.00       0    999.0
 295    3:40   45.7    21    9.3   331     11.9   879.5    0.00       0    999.0
 295    3:50   45.2    21   10.5   328     12.1   879.7    0.00       0    999.0
 295    4:00   46.0    21    9.2   328     11.0   879.7    0.00       0    999.0
 295    4:10   46.9    20    8.6   327     11.0   879.7    0.00       0    999.0
 295    4:20   46.3    20    9.3   326     11.8   879.8    0.00       0    999.0
 295    4:30   45.7    21    8.6   326     11.1   879.9    0.00       0    999.0
 295    4:40   45.2    21    7.5   323      9.3   880.0    0.00       0    999.0
 295    4:50   44.6    22    8.6   320     11.7   880.2    0.00       0    999.0
 295    5:00   45.3    22    8.9   322     10.7   880.4    0.00       0    999.0
 295    5:10   44.7    22    8.5   322     10.5   880.4    0.00       0    999.0
 295    5:20   43.9    23    7.0   329      9.1   880.3    0.00       0    999.0
 295    5:30   43.5    24    8.5   324     11.1   880.3    0.00       0    999.0
 295    5:40   43.0    24    8.5   321     10.2   880.4    0.00       0    999.0
 295    5:50   42.8    25    7.4   330     11.5   880.7    0.00       0    999.0
 295    6:00   43.3    24    6.1     1      9.0   880.8    0.00       2    999.0
 295    6:10   43.9    24    1.6   359      4.7   880.9    0.00       7    999.0
 295    6:20   44.4    24    1.4   319      6.6   881.0    0.00      29    999.0
 295    6:30   45.2    24    4.8   319      6.5   881.0    0.00      76    999.0
 295    6:40   46.8    23    5.1   336      7.4   881.3    0.00     113    999.0
 295    6:50   47.2    22    4.4   334      7.1   881.5    0.00     134    999.0
 295    7:00   47.8    22    5.5   330      7.7   881.5    0.00     117    999.0
 295    7:10   48.6    22    2.1   352      4.0   881.6    0.00      96    999.0
 295    7:20   48.9    21    0.0     0      0.0   881.7    0.00     117    999.0
 295    7:30   50.0    20    2.0   320      5.1   881.8    0.00     107    999.0
 295    7:40   51.1    21    0.5   343      2.8   881.8    0.00      97    999.0
 295    7:50   52.8    20    0.8   332      6.7   881.9    0.00     243    999.0
 295    8:00   54.7    18    6.8   334     10.2   881.9    0.00     313    999.0
 295    8:10   55.8    17    3.3   355      5.5   881.9    0.00     367    999.0
 295    8:20   57.9    16    1.6    31      5.3   882.0    0.00     407    999.0
 295    8:30   60.2    15    1.1    74      5.0   882.0    0.00     416    999.0
 295    8:40   61.4    14    1.6    82      4.5   882.1    0.00     481    999.0
 295    8:50   62.7    13    1.3    12      5.3   882.0    0.00     486    999.0
 295    9:00   64.1    13    1.1     5      7.2   881.8    0.00     501    999.0
 295    9:10   63.9    13    3.3   318      7.7   881.8    0.00     547    999.0
 295    9:20   63.7    13    3.9   310      9.3   881.8    0.00     457    999.0
 295    9:30   63.6    13    8.8   308     12.6   881.7    0.00     519    999.0
 295    9:40   64.1    13    6.8   312      9.6   881.7    0.00     577    999.0
 295    9:50   65.1    13    7.3   324     10.9   881.7    0.00     623    999.0
 295   10:00   65.9    12    6.4   324      9.8   881.7    0.00     632    999.0
 295   10:10   66.8    12    5.6   323      9.1   881.6    0.00     601    999.0
 295   10:20   67.3    12    5.2   323      9.6   881.5    0.00     605    999.0
 295   10:30   68.1    12    5.2   301      9.8   881.5    0.00     635    999.0
 295   10:40   68.7    12    5.5   302     10.5   881.5    0.00     664    999.0
 295   10:50   69.4    11    3.0   277      7.0   881.4    0.00     643    999.0
 295   11:00   70.1    11    4.7   271      8.5   881.3    0.00     748    999.0
 295   11:10   70.6    11    4.2   249      7.5   881.2    0.00     704    999.0
 295   11:20   72.1    11    1.4   191      5.2   881.0    0.00     689    999.0
 295   11:30   73.3    10    1.5   328      6.1   880.8    0.00     540    999.0
 295   11:40   72.2    11    1.5   217      5.8   880.5    0.00     503    999.0
 295   11:50   72.2    11    1.8   176      3.5   880.5    0.00     433    999.0
 295   12:00   72.2    11    2.4   219      5.2   880.4    0.00     560    999.0
 295   12:10   72.8    11    1.4   213      4.7   880.2    0.00     617    999.0
 295   12:20   73.7    11    1.2    44      4.7   880.2    0.00     701    999.0
 295   12:30   73.4    11    3.6   276      6.7   880.1    0.00     694    999.0
 295   12:40   74.3    10    1.2   266      4.2   880.1    0.00     688    999.0
 295   12:50   74.0    11    1.4   124      4.4   880.1    0.00     663    999.0
 295   13:00   74.5    10    3.5   171      8.8   880.0    0.00     669    999.0
 295   13:10   74.5    11    1.4   132      5.9   880.0    0.00     659    999.0
 295   13:20   75.7    10    2.4   140      6.7   879.9    0.00     654    999.0
 295   13:30   75.0    10    3.7   148      7.7   879.8    0.00     632    999.0
 295   13:40   75.5    11    2.9   191      8.8   879.8    0.00     596    999.0
 295   13:50   75.4    11    4.3   217     10.4   879.7    0.00     573    999.0
 295   14:00   75.5    11    5.4   192      8.8   879.7    0.00     552    999.0
 295   14:10   75.0    11    5.0   146      9.3   879.6    0.00     534    999.0
 295   14:20   75.1    12    3.3   152      6.6   879.5    0.00     525    999.0
 295   14:30   76.1    12    5.2   226      8.8   879.6    0.00     456    999.0
 295   14:40   75.3    12    4.1   209      8.4   879.7    0.00     172    999.0
 295   14:50   74.6    12    4.2   168      7.2   879.6    0.00     198    999.0
 295   15:00   74.6    12    4.2   171      6.6   879.6    0.00     204    999.0
 295   15:10   75.1    11    5.1   170      9.0   879.6    0.00     228    999.0
 295   15:20   74.7    11    8.2   178     11.7   879.5    0.00     164    999.0
 295   15:30   74.4    11    5.9   177      9.3   879.6    0.00     176    999.0
 295   15:40   74.5    11    5.0   178      7.7   879.5    0.00     145    999.0
 295   15:50   74.7    11    5.2   172      8.2   879.5    0.00     163    999.0
 295   16:00   74.3    12    5.2   164      8.1   879.4    0.00     106    999.0
 295   16:10   74.1    12    4.7   179      6.8   879.4    0.00     100    999.0
 295   16:20   74.4    12    4.5   167      5.9   879.5    0.00     139    999.0
 295   16:30   74.5    12    5.0   165      7.6   879.5    0.00     105    999.0
 295   16:40   73.7    12    6.1   196      8.9   879.5    0.00      65    999.0
 295   16:50   72.7    13    5.6   219      8.3   879.6    0.00      47    999.0
 295   17:00   71.0    13    6.5   217      9.3   879.7    0.00      10    999.0
 295   17:10   69.4    14    5.6   214      7.2   879.8    0.00       4    999.0
 295   17:20   68.0    14    5.4   195      7.2   879.9    0.00       1    999.0
 295   17:30   66.5    16    6.2   185      8.3   879.9    0.00       0    999.0
 295   17:40   66.0    16    5.5   199      7.9   880.0    0.00       0    999.0
 295   17:50   65.1    16    5.4   198      6.6   880.1    0.00       0    999.0
 295   18:00   64.1    17    4.2   186      6.4   880.1    0.00       0    999.0
 295   18:10   62.2    18    2.4   143      4.5   880.2    0.00       0    999.0
 295   18:20   62.6    18    1.5   148      3.1   880.3    0.00       0    999.0
 295   18:30   61.8    18    0.0     0      0.0   880.4    0.00       0    999.0
 295   18:40   61.8    18    1.5   133      3.4   880.5    0.00       0    999.0
 295   18:50   61.7    18    0.7   149      2.5   880.6    0.00       0    999.0
 295   19:00   61.1    19    0.0   111      0.3   880.5    0.00       0    999.0
 295   19:10   60.5    19    1.6    41      3.8   880.5    0.00       0    999.0
 295   19:20   59.5    19    2.9    33      3.7   880.6    0.00       0    999.0
 295   19:30   58.5    19    2.0    41      3.1   880.6    0.00       0    999.0
 295   19:40   55.0    20    0.5    42      2.6   880.6    0.00       0    999.0
 295   19:50   53.4    21    0.9    32      2.9   880.8    0.00       0    999.0
 295   20:00   53.2    22    0.7    40      2.9   880.8    0.00       0    999.0
 295   20:10   53.3    22    0.2    43      2.3   880.8    0.00       0    999.0
 295   20:20   55.0    20    0.9     8      5.6   880.9    0.00       0    999.0
 295   20:30   51.4    23    3.6   300      5.6   881.0    0.00       0    999.0
 295   20:40   49.6    25    4.0   318      5.2   881.0    0.00       0    999.0
 295   20:50   49.0    25    5.1   340      6.0   881.0    0.00       0    999.0
 295   21:00   47.9    25    3.0   359      4.9   881.1    0.00       0    999.0
 295   21:10   47.4    25    0.8     7      2.3   881.3    0.00       0    999.0
 295   21:20   47.1    26    0.2     0      2.6   881.3    0.00       0    999.0
 295   21:30   46.5    26    2.5   357      3.3   881.3    0.00       0    999.0
 295   21:40   46.0    26    4.0   328      5.3   881.4    0.00       0    999.0
 295   21:50   46.2    27    5.0   333      5.6   881.4    0.00       0    999.0

Return to Sarcobatus Flat, Nevada graphs page.


Western Regional Climate Center,wrcc@dri.edu